Accueil
METAR-TAF:

METAR-TAF

Aéroports :

Aéroport international de Vladivostok

Vladivostok, Russie

latitude: 43-07N, longitude: 131-56E, altitude: 184 m

Observation

Le bulletin a été fait il y a 28 minutes, à 07:00 UTC
Vent 6 kt de nord/nord-ouest
Température 30°C
Humidité 55%
Pression 1005 hPa
Visibilité 10 km ou plus

METAR: UHWW 250700Z 34003MPS 9999 NSC 30/20 Q1005 R07R/0///70 NOSIG RMK QFE753

Heure: 17:28 (07:28 UTC)

Prévision

Le bulletin a été fait il y a 2 heures et 28 minutes, à 05:00 UTC
Prévision valable du 25 à 06 UTC au 26 à 06 UTC
Vent 6 kt de sud/sud-est avec des rafales jusqu'à 17 kt
Visibilité 10 km ou plus
Nuages fragmentés à une hauteur de 2000 ft
Evoluant progressivement
du 25 à 12 UTC au 25 à 15 UTC
Visibilité: 6000 m
Nuages fragmentés à une hauteur de 1600 ft, Cumulonimbus.
faibles averses de pluie,

TAF: UHWW 250500Z 2506/2606 16003G09MPS 9999 BKN020 BECMG 2512/2515 6000 -SHRA BKN016CB

Observations et prévisions météorologiques de plus de 4000 aéroports (messages METAR et TAF).

Les stations disponibles sont représentées par des disques jaunes et rouges sur la carte.

Passer la souris dessus pour voir le nom de la station.

Cliquer dessus pour voir les observations et prévisions météorologiques.

Pour changer de carte: cliquez sur les boutons verts avec une croix noire pour zoomer, sur le bouton vert avec un tiret pour effectuer un zoom arrière, ou sur les flèches vertes pour les cartes adjacentes.


METAR-TAF: